Time;durP1;ratioP1;P1;durP2;ratioP2;P2;SDS_P1;SDS_P2;PMS_P1;PMS_P2;Temp;Humidity;BMP_temperature;BMP_pressure;BME280_temperature;BME280_humidity;BME280_pressure;Samples;Min_cycle;Max_cycle;Signal;HPM_P1;HPM_P2
2022/07/14 00:00:11;;;;;;;0.95;0.85;;;;;;;24.75;35.06;100867.91;5054199;28;20036;-80
2022/07/14 00:02:37;;;;;;;11.77;1.65;;;;;;;24.72;35.44;100873.81;5054211;28;20440;-77
2022/07/14 00:05:02;;;;;;;2.35;1.05;;;;;;;24.74;34.92;100876.34;5054062;28;20020;-76
2022/07/14 00:07:28;;;;;;;6.47;1.30;;;;;;;24.76;35.11;100874.25;5054334;28;20032;-77
2022/07/14 00:09:54;;;;;;;2.78;1.10;;;;;;;24.74;35.30;100877.19;5054268;28;20092;-76
2022/07/14 00:12:19;;;;;;;6.07;1.30;;;;;;;24.74;35.24;100871.69;5054223;28;20021;-76
2022/07/14 00:14:44;;;;;;;4.30;0.93;;;;;;;24.75;35.29;100876.16;5054024;28;20406;-77
2022/07/14 00:17:10;;;;;;;2.17;0.90;;;;;;;24.74;34.85;100868.94;5054038;28;20040;-75
2022/07/14 00:19:35;;;;;;;7.88;1.05;;;;;;;24.70;35.01;100867.69;5053492;28;20033;-76
2022/07/14 00:22:02;;;;;;;13.25;2.08;;;;;;;24.61;35.17;100866.22;5053793;28;20111;-77
2022/07/14 00:24:28;;;;;;;5.88;1.23;;;;;;;24.69;35.24;100876.16;5053816;28;20024;-77
2022/07/14 00:26:53;;;;;;;5.88;1.70;;;;;;;24.69;35.19;100874.25;5053480;28;20032;-76
2022/07/14 00:29:19;;;;;;;11.45;1.63;;;;;;;24.67;35.60;100876.38;5053655;28;20021;-77
2022/07/14 00:31:44;;;;;;;10.23;1.17;;;;;;;24.54;35.65;100865.34;5053513;28;20056;-76
2022/07/14 00:34:11;;;;;;;6.05;1.83;;;;;;;24.63;35.62;100885.25;5053480;28;20041;-75
2022/07/14 00:36:37;;;;;;;5.07;0.95;;;;;;;24.56;35.80;100884.38;5053403;28;20037;-77
2022/07/14 00:39:02;;;;;;;6.55;1.00;;;;;;;24.57;35.85;100891.56;5053291;28;20071;-78
2022/07/14 00:41:28;;;;;;;10.52;2.38;;;;;;;24.53;36.50;100884.78;5052993;28;20047;-77
2022/07/14 00:43:53;;;;;;;5.82;3.00;;;;;;;24.50;37.17;100888.81;5053940;28;20028;-76
2022/07/14 00:46:19;;;;;;;9.88;4.65;;;;;;;24.42;37.71;100890.91;5053417;28;20112;-75
2022/07/14 00:48:44;;;;;;;13.50;5.82;;;;;;;24.28;37.89;100870.78;5053527;28;20024;-75
2022/07/14 00:51:10;;;;;;;31.70;14.73;;;;;;;24.26;39.17;100886.66;5053196;28;20025;-76
2022/07/14 00:53:35;;;;;;;18.15;9.75;;;;;;;24.24;39.63;100892.38;5053467;28;20025;-76
2022/07/14 00:56:01;;;;;;;13.50;7.63;;;;;;;24.26;39.24;100884.75;5053653;28;20029;-76
2022/07/14 00:58:26;;;;;;;21.52;11.48;;;;;;;24.19;40.45;100883.03;5052979;28;20025;-76
2022/07/14 01:00:52;;;;;;;32.88;13.35;;;;;;;24.21;41.13;100881.78;5053345;28;20120;-76
2022/07/14 01:03:17;;;;;;;24.40;9.95;;;;;;;24.20;41.10;100884.72;5053078;28;20031;-77
2022/07/14 01:05:43;;;;;;;16.05;10.43;;;;;;;24.21;41.11;100875.44;5052038;28;20545;-77
2022/07/14 01:08:09;;;;;;;20.05;9.00;;;;;;;24.17;41.68;100876.91;5053221;28;20021;-77
2022/07/14 01:10:35;;;;;;;21.60;8.27;;;;;;;24.16;41.76;100869.69;5052864;28;20024;-77
2022/07/14 01:13:03;;;;;;;25.33;7.95;;;;;;;24.10;42.13;100878.75;5053259;28;20108;-76
2022/07/14 01:15:29;;;;;;;16.15;6.85;;;;;;;24.05;42.14;100879.38;5052700;28;20017;-76
2022/07/14 01:17:55;;;;;;;21.63;6.28;;;;;;;23.91;42.48;100869.41;5052717;28;20478;-76
2022/07/14 01:20:22;;;;;;;21.23;5.85;;;;;;;23.95;42.71;100872.56;5051209;28;20066;-76
2022/07/14 01:22:48;;;;;;;18.13;3.90;;;;;;;23.90;43.10;100884.19;5052821;28;20020;-76
2022/07/14 01:25:15;;;;;;;25.05;4.28;;;;;;;23.77;43.78;100884.97;5052655;28;20063;-76
2022/07/14 01:27:40;;;;;;;22.75;3.28;;;;;;;23.70;43.69;100870.34;5052783;28;20114;-75
2022/07/14 01:30:07;;;;;;;18.42;3.35;;;;;;;23.74;43.64;100876.28;5052504;28;20454;-75
2022/07/14 01:32:32;;;;;;;18.50;4.18;;;;;;;23.75;43.18;100881.59;5052280;28;20017;-75
2022/07/14 01:34:59;;;;;;;15.40;3.40;;;;;;;23.75;43.01;100888.97;5052720;28;20074;-76
2022/07/14 01:37:25;;;;;;;27.70;4.00;;;;;;;23.56;42.78;100874.09;5052453;28;20074;-76
2022/07/14 01:39:51;;;;;;;21.20;2.88;;;;;;;23.48;42.78;100893.47;5052700;28;20056;-76
2022/07/14 01:42:17;;;;;;;9.90;3.00;;;;;;;23.48;42.15;100892.63;5052604;28;20506;-76
2022/07/14 01:44:42;;;;;;;7.93;2.92;;;;;;;23.52;41.70;100885.66;5052939;28;20029;-76
2022/07/14 01:47:09;;;;;;;13.30;2.88;;;;;;;23.57;41.10;100892.25;5053508;28;20025;-76
2022/07/14 01:49:34;;;;;;;13.00;2.63;;;;;;;23.56;40.71;100887.81;5052582;28;20356;-76
2022/07/14 01:52:00;;;;;;;12.18;2.28;;;;;;;23.52;40.82;100892.00;5052381;28;20131;-76
2022/07/14 01:54:25;;;;;;;20.80;4.07;;;;;;;23.41;40.74;100878.84;5052001;28;20029;-76
2022/07/14 01:56:51;;;;;;;19.52;2.10;;;;;;;23.44;40.88;100900.41;5051983;28;20457;-76
2022/07/14 01:59:16;;;;;;;7.30;2.10;;;;;;;23.42;40.77;100897.03;5050070;28;20033;-76
2022/07/14 02:01:42;;;;;;;5.45;1.95;;;;;;;23.37;40.52;100902.22;5051856;28;20479;-77
2022/07/14 02:04:13;;;;;;;9.43;2.22;;;;;;;23.31;40.85;100901.16;5051716;28;20057;-76
2022/07/14 02:06:54;;;;;;;5.78;1.40;;;;;;;23.26;40.72;100900.06;5052335;28;20072;-76
2022/07/14 02:09:20;;;;;;;6.53;1.95;;;;;;;23.24;40.65;100899.38;5053168;28;20049;-76
2022/07/14 02:14:32;;;;;;;29.05;3.63;;;;;;;23.31;40.73;100900.28;5051899;28;20122;-77
2022/07/14 02:16:57;;;;;;;8.38;2.58;;;;;;;23.20;40.69;100889.88;5051557;28;20028;-76
2022/07/14 02:19:24;;;;;;;17.83;2.78;;;;;;;23.26;40.46;100900.06;5051038;28;20025;-76
2022/07/14 02:21:51;;;;;;;15.43;3.65;;;;;;;23.29;40.26;100907.88;5051006;28;20033;-77
2022/07/14 02:24:17;;;;;;;17.38;4.30;;;;;;;23.23;40.76;100900.47;5051091;28;20060;-76
2022/07/14 02:26:43;;;;;;;16.70;4.10;;;;;;;23.33;40.52;100909.19;5050762;28;20032;-76
2022/07/14 02:29:09;;;;;;;13.20;4.00;;;;;;;23.35;40.60;100907.09;5050905;28;20043;-76
2022/07/14 02:31:35;;;;;;;13.75;4.22;;;;;;;23.30;40.50;100906.84;5051178;28;20049;-76
2022/07/14 02:34:02;;;;;;;12.63;4.13;;;;;;;23.16;41.01;100891.31;5050844;28;20778;-76
2022/07/14 02:36:28;;;;;;;11.88;5.35;;;;;;;23.17;40.89;100912.22;5050678;28;20035;-75
2022/07/14 02:38:54;;;;;;;18.48;5.00;;;;;;;22.98;41.15;100894.56;5050459;28;20049;-76
2022/07/14 02:41:19;;;;;;;12.90;4.32;;;;;;;23.15;41.20;100911.56;5050682;28;20078;-77
2022/07/14 02:43:45;;;;;;;15.95;4.70;;;;;;;23.16;41.44;100918.75;5050690;28;20036;-76
2022/07/14 02:46:10;;;;;;;29.90;6.63;;;;;;;23.12;41.46;100896.34;5050599;28;20459;-75
2022/07/14 02:48:36;;;;;;;13.63;5.40;;;;;;;23.05;41.69;100905.59;5050388;28;20033;-76
2022/07/14 02:51:09;;;;;;;28.35;5.43;;;;;;;23.01;41.99;100910.63;5050467;28;20037;-76
2022/07/14 02:53:35;;;;;;;25.42;6.65;;;;;;;22.86;42.33;100909.88;5050591;28;20103;-75
2022/07/14 02:56:01;;;;;;;27.70;6.88;;;;;;;22.84;42.36;100902.88;5050567;28;20075;-78
2022/07/14 02:58:27;;;;;;;31.98;8.07;;;;;;;22.81;42.30;100900.53;5050588;28;20063;-76
2022/07/14 03:00:53;;;;;;;29.55;8.07;;;;;;;22.87;42.49;100918.94;5050850;28;20543;-75
2022/07/14 03:03:20;;;;;;;29.75;6.93;;;;;;;22.84;42.55;100908.38;5050664;28;20025;-77
2022/07/14 03:05:45;;;;;;;31.83;7.18;;;;;;;22.94;42.54;100922.56;5050453;28;20036;-75
2022/07/14 03:08:11;;;;;;;44.58;7.10;;;;;;;22.81;42.74;100917.00;5051037;28;20033;-75
2022/07/14 03:10:36;;;;;;;27.90;6.68;;;;;;;22.67;42.96;100894.94;5051292;28;20458;-76
2022/07/14 03:13:03;;;;;;;24.08;7.35;;;;;;;22.78;43.06;100921.00;5051294;28;20466;-76
2022/07/14 03:15:28;;;;;;;24.33;6.95;;;;;;;22.72;43.36;100919.84;5050866;28;20053;-76
2022/07/14 03:17:54;;;;;;;19.88;6.43;;;;;;;22.63;43.66;100918.25;5051110;28;20071;-77
2022/07/14 03:20:19;;;;;;;33.92;8.15;;;;;;;22.54;43.63;100922.19;5051760;28;20025;-75
2022/07/14 03:22:45;;;;;;;38.20;8.15;;;;;;;22.48;43.94;100922.09;5055715;28;20024;-77
2022/07/14 03:25:11;;;;;;;24.95;8.15;;;;;;;22.47;43.96;100929.50;5056201;28;20029;-77
2022/07/14 03:27:38;;;;;;;39.10;9.57;;;;;;;22.41;44.20;100922.06;5054629;28;20044;-76
2022/07/14 03:30:04;;;;;;;48.25;9.55;;;;;;;22.37;44.16;100918.00;5054366;28;20029;-76
2022/07/14 03:32:30;;;;;;;34.00;10.40;;;;;;;22.32;44.39;100915.00;5054154;28;20025;-76
2022/07/14 03:34:56;;;;;;;33.30;9.23;;;;;;;22.26;44.13;100909.44;5054050;28;20037;-77
2022/07/14 03:37:21;;;;;;;33.65;10.25;;;;;;;22.41;44.20;100927.53;5053511;28;20021;-75
2022/07/14 03:39:47;;;;;;;46.35;10.77;;;;;;;22.43;44.13;100935.56;5053843;28;20037;-75
2022/07/14 03:42:12;;;;;;;50.95;12.50;;;;;;;22.40;44.47;100931.31;5053939;28;20025;-76
2022/07/14 03:44:38;;;;;;;35.47;10.32;;;;;;;22.33;44.08;100935.88;5053873;28;20033;-76
2022/07/14 03:47:03;;;;;;;41.42;10.80;;;;;;;22.31;44.05;100928.88;5054160;28;20021;-77
2022/07/14 03:49:28;;;;;;;57.28;10.65;;;;;;;22.22;44.37;100939.13;5053989;28;20043;-76
2022/07/14 03:51:54;;;;;;;25.73;9.02;;;;;;;22.09;44.22;100914.28;5053787;28;20025;-76
2022/07/14 03:54:19;;;;;;;35.95;10.85;;;;;;;22.14;44.23;100920.03;5053292;28;20032;-76
2022/07/14 03:56:45;;;;;;;37.60;10.20;;;;;;;22.32;44.04;100941.56;5052240;28;20031;-76
2022/07/14 03:59:10;;;;;;;47.45;10.73;;;;;;;22.37;43.96;100945.41;5053216;28;20029;-76
2022/07/14 04:01:38;;;;;;;55.70;9.90;;;;;;;22.39;43.88;100948.78;5053172;28;20471;-77
2022/07/14 04:04:03;;;;;;;34.78;10.07;;;;;;;22.31;43.94;100939.84;5053495;28;20083;-76
2022/07/14 04:06:29;;;;;;;38.10;8.38;;;;;;;22.34;43.83;100934.84;5053595;28;20025;-76
2022/07/14 04:08:55;;;;;;;19.13;7.45;;;;;;;22.32;43.64;100953.38;5053266;28;20124;-76
2022/07/14 04:11:20;;;;;;;18.02;7.00;;;;;;;22.25;43.88;100952.44;5053308;28;20086;-76
2022/07/14 04:13:45;;;;;;;24.88;6.70;;;;;;;22.27;43.66;100953.09;5053124;28;20025;-76
2022/07/14 04:16:11;;;;;;;25.98;7.45;;;;;;;22.08;43.83;100929.03;5052999;28;20040;-76
2022/07/14 04:18:36;;;;;;;18.30;6.65;;;;;;;22.22;43.70;100944.59;5053000;28;20021;-76
2022/07/14 04:21:02;;;;;;;12.55;5.90;;;;;;;22.27;43.79;100950.34;5052998;28;20467;-78
2022/07/14 04:23:28;;;;;;;28.70;6.13;;;;;;;22.28;43.81;100957.53;5052886;28;20036;-76
2022/07/14 04:25:53;;;;;;;16.00;5.95;;;;;;;22.30;44.04;100952.69;5052897;28;20028;-77
2022/07/14 04:28:19;;;;;;;22.33;5.90;;;;;;;22.21;44.08;100951.09;5052696;28;20195;-78
2022/07/14 04:30:44;;;;;;;25.13;7.32;;;;;;;22.30;43.99;100963.66;5052786;28;20078;-76
2022/07/14 04:33:10;;;;;;;17.42;5.75;;;;;;;22.25;44.11;100952.44;5050434;28;20040;-76
2022/07/14 04:35:36;;;;;;;38.55;5.97;;;;;;;22.32;44.23;100958.84;5051361;28;20539;-77
2022/07/14 04:38:02;;;;;;;15.93;5.72;;;;;;;22.40;44.00;100955.97;5052462;28;20453;-78
2022/07/14 04:40:29;;;;;;;16.83;5.47;;;;;;;22.41;44.12;100956.84;5052621;28;20032;-77
2022/07/14 04:42:54;;;;;;;18.13;5.53;;;;;;;22.48;44.23;100958.59;5052582;28;20494;-75
2022/07/14 04:45:20;;;;;;;29.23;5.85;;;;;;;22.58;44.00;100963.75;5052546;28;20098;-76
2022/07/14 04:47:46;;;;;;;14.80;5.85;;;;;;;22.68;44.01;100962.44;5052691;28;20035;-78
2022/07/14 04:52:55;;;;;;;27.33;6.50;;;;;;;22.77;43.71;100957.69;5052640;28;20063;-76
2022/07/14 04:55:21;;;;;;;22.25;6.45;;;;;;;22.81;43.56;100960.88;5052769;28;20044;-77
2022/07/14 04:57:46;;;;;;;34.97;5.97;;;;;;;22.87;43.86;100966.44;5053284;28;20082;-77
2022/07/14 05:00:12;;;;;;;32.65;5.78;;;;;;;22.88;43.65;100961.78;5058437;28;20021;-76
2022/07/14 05:02:38;;;;;;;16.35;5.93;;;;;;;22.90;43.65;100951.47;5059156;28;20035;-77
2022/07/14 05:05:04;;;;;;;18.27;5.47;;;;;;;22.99;43.59;100964.00;5053122;28;20024;-77
2022/07/14 05:07:29;;;;;;;26.63;5.57;;;;;;;23.01;43.61;100967.41;5052810;28;20057;-77
2022/07/14 05:09:56;;;;;;;22.38;5.45;;;;;;;23.04;43.91;100959.63;5053146;28;20021;-76
2022/07/14 05:12:23;;;;;;;16.65;4.43;;;;;;;23.14;43.53;100967.53;5053029;28;20020;-76
2022/07/14 05:14:49;;;;;;;28.48;4.72;;;;;;;23.14;43.24;100959.28;5052853;28;20021;-77
2022/07/14 05:17:14;;;;;;;26.98;4.93;;;;;;;23.12;43.01;100939.41;5052539;28;20031;-77
2022/07/14 05:19:40;;;;;;;21.65;4.97;;;;;;;23.30;43.27;100975.47;5052341;28;20022;-76
2022/07/14 05:22:05;;;;;;;30.85;6.13;;;;;;;23.31;42.97;100955.19;5051846;28;20028;-76
2022/07/14 05:24:31;;;;;;;29.52;5.85;;;;;;;23.41;43.21;100972.19;5052235;28;20482;-76
2022/07/14 05:26:59;;;;;;;21.90;4.85;;;;;;;23.39;43.04;100960.59;5051540;28;20482;-76
2022/07/14 05:29:25;;;;;;;19.83;5.53;;;;;;;23.49;43.04;100961.06;5052424;28;20048;-75
2022/07/14 05:31:51;;;;;;;24.10;5.28;;;;;;;23.62;42.63;100969.38;5052128;28;20025;-75
2022/07/14 05:34:17;;;;;;;17.20;5.50;;;;;;;23.68;43.00;100968.59;5052103;28;20039;-77
2022/07/14 05:36:42;;;;;;;26.58;5.75;;;;;;;23.76;42.85;100965.66;5052141;28;20053;-77
2022/07/14 05:39:08;;;;;;;25.35;5.75;;;;;;;23.89;42.52;100969.53;5051494;28;20506;-77
2022/07/14 05:41:33;;;;;;;22.27;5.30;;;;;;;23.88;42.31;100951.38;5051912;28;20102;-78
2022/07/14 05:43:59;;;;;;;25.90;7.03;;;;;;;24.11;42.66;100985.78;5051873;28;20071;-76
2022/07/14 05:46:24;;;;;;;21.83;6.03;;;;;;;24.14;42.71;100970.75;5052200;28;20031;-76
2022/07/14 05:48:50;;;;;;;29.45;6.93;;;;;;;24.18;42.71;100966.56;5051859;28;20025;-76
2022/07/14 05:51:18;;;;;;;37.80;6.97;;;;;;;24.29;42.91;100957.72;5050346;28;20110;-75
2022/07/14 05:53:45;;;;;;;31.63;6.68;;;;;;;24.41;42.63;100969.81;5051913;28;20025;-76
2022/07/14 05:56:12;;;;;;;34.08;8.45;;;;;;;24.53;42.97;100968.16;5051661;28;20040;-77
2022/07/14 05:58:39;;;;;;;34.35;7.05;;;;;;;24.63;42.38;100965.84;5051228;28;20124;-78
2022/07/14 06:01:05;;;;;;;27.33;6.10;;;;;;;24.69;42.32;100964.19;5051737;28;20127;-77
2022/07/14 06:03:31;;;;;;;21.83;6.20;;;;;;;24.70;42.26;100957.63;5051417;28;20486;-77
2022/07/14 06:06:01;;;;;;;28.60;6.55;;;;;;;24.77;42.03;100950.22;5051473;28;20224;-78
2022/07/14 06:08:28;;;;;;;24.38;5.97;;;;;;;24.92;42.05;100948.19;5051377;28;20021;-76
2022/07/14 06:10:57;;;;;;;14.65;5.90;;;;;;;25.02;41.89;100956.00;5051601;28;20029;-76
2022/07/14 06:13:28;;;;;;;28.15;5.72;;;;;;;25.06;41.52;100960.88;5051667;28;20021;-76
2022/07/14 06:15:55;;;;;;;33.50;7.95;;;;;;;25.12;41.60;100961.94;5051659;28;20559;-78
2022/07/14 06:18:21;;;;;;;40.30;8.20;;;;;;;25.18;41.84;100952.81;5051394;28;20033;-77
2022/07/14 06:20:48;;;;;;;46.33;13.45;;;;;;;25.30;41.93;100965.75;5050976;28;20106;-78
2022/07/14 06:23:14;;;;;;;22.45;6.38;;;;;;;25.29;42.18;100952.19;5050728;28;20031;-77
2022/07/14 06:25:41;;;;;;;33.78;9.80;;;;;;;25.44;42.19;100969.34;5051328;28;20064;-76
2022/07/14 06:28:07;;;;;;;24.13;8.20;;;;;;;25.53;41.77;100965.34;5051368;28;20037;-76
2022/07/14 06:30:34;;;;;;;21.65;6.53;;;;;;;25.49;41.72;100964.06;5051049;28;20052;-78
2022/07/14 06:33:00;;;;;;;29.73;7.85;;;;;;;25.59;41.83;100956.22;5051078;28;20430;-75
2022/07/14 06:35:25;;;;;;;39.45;8.63;;;;;;;25.68;41.64;100957.69;5052546;28;20036;-77
2022/07/14 06:37:52;;;;;;;18.05;7.85;;;;;;;25.68;41.25;100954.94;5060447;28;20033;-76
2022/07/14 06:40:18;;;;;;;28.88;7.25;;;;;;;25.75;41.60;100950.22;5053095;28;20018;-76
2022/07/14 06:42:43;;;;;;;19.67;6.78;;;;;;;25.81;41.35;100943.84;5050800;28;20032;-80
2022/07/14 06:45:09;;;;;;;20.52;6.88;;;;;;;25.86;41.08;100948.72;5051015;28;20029;-78
2022/07/14 06:47:34;;;;;;;26.73;6.55;;;;;;;25.90;40.96;100950.81;5051519;28;20071;-76
2022/07/14 06:50:00;;;;;;;22.98;6.85;;;;;;;25.92;40.84;100954.22;5051200;28;20028;-76
2022/07/14 06:52:26;;;;;;;22.35;6.78;;;;;;;25.98;41.00;100942.34;5050289;28;20025;-76
2022/07/14 06:54:52;;;;;;;27.42;7.38;;;;;;;26.07;40.83;100953.09;5050865;28;20033;-76
2022/07/14 06:57:19;;;;;;;25.95;5.80;;;;;;;26.18;40.48;100946.94;5054433;28;20513;-76
2022/07/14 06:59:45;;;;;;;25.23;5.53;;;;;;;26.16;39.90;100951.81;5054399;28;20090;-75
2022/07/14 07:02:10;;;;;;;34.22;7.97;;;;;;;26.23;39.82;100944.38;5054475;28;20020;-76
2022/07/14 07:04:36;;;;;;;21.08;5.80;;;;;;;26.28;39.91;100942.66;5054316;28;20131;-76
2022/07/14 07:07:01;;;;;;;57.65;8.48;;;;;;;26.36;39.67;100938.81;5054292;28;20086;-75
2022/07/14 07:09:27;;;;;;;37.10;7.25;;;;;;;26.45;39.46;100931.97;5052965;28;20558;-76
2022/07/14 07:11:52;;;;;;;14.88;4.80;;;;;;;26.49;38.50;100935.97;5054327;28;20394;-76
2022/07/14 07:14:18;;;;;;;34.85;8.73;;;;;;;26.56;38.54;100935.91;5054277;28;20509;-77
2022/07/14 07:16:45;;;;;;;23.33;4.97;;;;;;;26.65;38.43;100937.34;5054491;28;20024;-76
2022/07/14 07:19:11;;;;;;;24.98;6.43;;;;;;;26.74;38.38;100934.09;5054102;28;20091;-76
2022/07/14 07:21:36;;;;;;;29.52;6.95;;;;;;;26.72;38.12;100939.00;5054089;28;20449;-76
2022/07/14 07:24:02;;;;;;;16.27;5.18;;;;;;;26.74;38.18;100941.53;5052534;28;20025;-79
2022/07/14 07:26:33;;;;;;;10.27;3.53;;;;;;;26.75;37.75;100929.44;5052376;28;20021;-76
2022/07/14 07:28:59;;;;;;;12.10;4.53;;;;;;;26.88;38.22;100937.66;5054164;28;20529;-76
2022/07/14 07:31:25;;;;;;;23.83;4.35;;;;;;;26.95;38.48;100925.47;5053794;28;20028;-76
2022/07/14 07:33:51;;;;;;;17.45;4.63;;;;;;;27.09;38.11;100933.66;5053958;28;20086;-76
2022/07/14 07:36:17;;;;;;;13.15;4.40;;;;;;;27.10;37.70;100918.75;5052406;28;20025;-76
2022/07/14 07:38:42;;;;;;;21.98;5.43;;;;;;;27.24;37.88;100926.72;5053629;28;20098;-77
2022/07/14 07:41:07;;;;;;;22.45;4.55;;;;;;;27.32;37.11;100922.81;5053870;28;20467;-76
2022/07/14 07:43:34;;;;;;;13.63;3.75;;;;;;;27.42;37.27;100915.75;5052010;28;20459;-76
2022/07/14 07:45:59;;;;;;;18.17;4.28;;;;;;;27.55;36.26;100917.53;5053787;28;20399;-77
2022/07/14 07:48:25;;;;;;;28.95;3.53;;;;;;;27.73;35.83;100925.84;5053872;28;20029;-78
2022/07/14 07:50:51;;;;;;;26.45;5.10;;;;;;;27.87;35.60;100919.06;5053786;28;20033;-76
2022/07/14 07:53:16;;;;;;;16.67;2.65;;;;;;;28.03;35.21;100924.00;5054103;28;20027;-77
2022/07/14 07:55:42;;;;;;;13.68;2.83;;;;;;;28.14;34.29;100921.53;5056724;28;20024;-78
2022/07/14 07:58:08;;;;;;;14.55;3.28;;;;;;;28.26;34.61;100925.19;5059069;28;20505;-76
2022/07/14 08:00:34;;;;;;;7.00;2.67;;;;;;;28.35;34.21;100918.25;5052343;28;20037;-76
2022/07/14 08:03:01;;;;;;;10.43;3.20;;;;;;;28.44;34.34;100914.13;5053448;28;20021;-76
2022/07/14 08:05:29;;;;;;;13.13;3.13;;;;;;;28.55;33.77;100914.16;5053526;28;20074;-76
2022/07/14 08:07:55;;;;;;;20.00;2.95;;;;;;;28.66;33.62;100912.50;5053410;28;20036;-76
2022/07/14 08:10:21;;;;;;;9.15;2.45;;;;;;;28.78;33.53;100902.31;5053449;28;20025;-76
2022/07/14 08:12:47;;;;;;;17.67;2.50;;;;;;;28.88;32.29;100910.88;5053637;28;20052;-76
2022/07/14 08:15:14;;;;;;;8.27;2.40;;;;;;;28.98;31.15;100902.00;5057531;28;20558;-77
2022/07/14 08:17:39;;;;;;;5.28;1.38;;;;;;;29.16;29.74;100904.66;5054710;28;20027;-77
2022/07/14 08:20:07;;;;;;;8.77;1.80;;;;;;;29.16;29.37;100897.22;5053100;28;20029;-76
2022/07/14 08:22:33;;;;;;;1.30;0.98;;;;;;;29.34;28.73;100909.28;5052808;28;20102;-77
2022/07/14 08:24:59;;;;;;;9.18;1.50;;;;;;;29.45;29.20;100905.66;5053009;28;20017;-77
2022/07/14 08:27:26;;;;;;;7.32;1.30;;;;;;;29.54;28.27;100891.19;5051542;28;20467;-75
2022/07/14 08:29:52;;;;;;;14.68;2.05;;;;;;;29.57;28.73;100904.56;5052977;28;20017;-76
2022/07/14 08:32:33;;;;;;;5.38;1.70;;;;;;;29.66;29.11;100892.00;5052552;28;20031;-77
2022/07/14 08:34:59;;;;;;;5.72;1.20;;;;;;;29.76;28.28;100905.25;5052940;28;20025;-77
2022/07/14 08:37:25;;;;;;;4.90;1.10;;;;;;;29.84;28.54;100891.06;5052674;28;20025;-77
2022/07/14 08:39:50;;;;;;;7.82;1.25;;;;;;;29.95;28.86;100892.97;5052617;28;20059;-76
2022/07/14 08:42:16;;;;;;;7.82;1.67;;;;;;;30.05;28.34;100893.19;5052529;28;20108;-77
2022/07/14 08:44:43;;;;;;;19.35;1.63;;;;;;;30.07;27.55;100893.75;5052671;28;20021;-76
2022/07/14 08:47:09;;;;;;;7.15;2.10;;;;;;;30.08;27.62;100891.84;5052384;28;20024;-79
2022/07/14 08:49:34;;;;;;;5.55;1.35;;;;;;;30.16;27.72;100892.28;5052559;28;20071;-82
2022/07/14 08:52:00;;;;;;;5.05;1.08;;;;;;;30.19;27.85;100883.47;5052680;28;20025;-77
2022/07/14 08:54:26;;;;;;;3.67;1.20;;;;;;;30.29;28.03;100876.44;5052600;28;20498;-77
2022/07/14 08:56:51;;;;;;;10.48;1.70;;;;;;;30.32;28.50;100865.69;5052861;28;20033;-76
2022/07/14 08:59:17;;;;;;;7.50;1.73;;;;;;;30.43;27.68;100883.38;5052493;28;20056;-76
2022/07/14 09:01:46;;;;;;;7.18;1.10;;;;;;;30.52;27.54;100881.91;5052290;28;20029;-77
2022/07/14 09:04:12;;;;;;;11.25;1.83;;;;;;;30.52;27.25;100876.38;5051121;28;20032;-76
2022/07/14 09:06:54;;;;;;;2.45;1.08;;;;;;;30.61;27.17;100869.31;5052263;28;20040;-77
2022/07/14 09:09:30;;;;;;;6.30;1.40;;;;;;;30.73;27.77;100872.84;5051932;28;20017;-76
2022/07/14 09:12:10;;;;;;;3.38;1.30;;;;;;;30.80;27.43;100876.28;5052183;28;20036;-77
2022/07/14 09:17:25;;;;;;;7.20;1.92;;;;;;;30.66;28.67;100861.06;5052027;28;20039;-76
2022/07/14 09:20:03;;;;;;;14.43;4.13;;;;;;;30.60;29.16;100857.34;5051988;28;20457;-78
2022/07/14 09:22:32;;;;;;;13.32;2.17;;;;;;;30.39;29.99;100858.06;5052104;28;20021;-76
2022/07/14 09:24:57;;;;;;;7.72;2.10;;;;;;;30.47;33.65;100873.47;5052097;28;20036;-77
2022/07/14 09:27:23;;;;;;;8.52;1.98;;;;;;;30.19;36.50;100866.81;5051770;28;20080;-76
2022/07/14 09:29:55;;;;;;;8.90;1.60;;;;;;;30.27;35.47;100864.75;5051751;28;20467;-77
2022/07/14 09:32:40;;;;;;;5.78;1.88;;;;;;;30.34;32.10;100851.53;5051574;28;20031;-76
2022/07/14 09:35:06;;;;;;;9.73;1.90;;;;;;;30.29;30.61;100854.22;5051847;28;20079;-77
2022/07/14 09:37:32;;;;;;;3.40;1.52;;;;;;;30.34;31.79;100857.09;5051824;28;20029;-78
2022/07/14 09:39:59;;;;;;;4.88;2.08;;;;;;;30.40;30.83;100859.75;5051990;28;20399;-76
2022/07/14 09:42:59;;;;;;;13.15;2.42;;;;;;;30.45;29.79;100864.56;5052049;28;20079;-77
2022/07/14 09:45:29;;;;;;;14.30;2.50;;;;;;;30.41;34.28;100858.66;5051840;28;20049;-77
2022/07/14 09:47:58;;;;;;;12.02;1.90;;;;;;;30.41;34.49;100857.81;5051739;28;20503;-77
2022/07/14 09:50:49;;;;;;;10.65;1.70;;;;;;;30.35;34.04;100854.06;5051772;28;20013;-77
2022/07/14 09:53:16;;;;;;;15.18;5.68;;;;;;;30.34;34.17;100857.09;5057390;28;20100;-77
2022/07/14 09:56:03;;;;;;;7.18;1.67;;;;;;;30.42;33.43;100852.03;5050577;28;20032;-76
2022/07/14 09:58:29;;;;;;;19.25;1.45;;;;;;;30.37;32.79;100860.22;5050962;28;20056;-77
2022/07/14 10:01:05;;;;;;;9.20;1.88;;;;;;;30.44;32.38;100849.84;5051244;28;20562;-76
2022/07/14 10:03:33;;;;;;;6.63;1.55;;;;;;;30.39;31.51;100843.34;5051481;28;20029;-76
2022/07/14 10:06:01;;;;;;;10.80;1.73;;;;;;;30.34;32.17;100846.81;5051495;28;20021;-76
2022/07/14 10:08:34;;;;;;;12.75;2.28;;;;;;;30.35;32.08;100847.69;5051744;28;20032;-76
2022/07/14 10:11:02;;;;;;;19.17;2.45;;;;;;;30.45;31.60;100847.91;5051324;28;20538;-78
2022/07/14 10:13:28;;;;;;;5.25;1.92;;;;;;;30.43;31.65;100841.75;5050877;28;20490;-76
2022/07/14 10:15:55;;;;;;;7.55;1.35;;;;;;;30.48;31.04;100847.41;5051246;28;20124;-77
2022/07/14 10:18:22;;;;;;;7.28;2.00;;;;;;;30.50;31.07;100836.88;5051047;28;20025;-79
2022/07/14 10:20:53;;;;;;;7.30;1.77;;;;;;;30.50;30.01;100834.94;5051319;28;20041;-77
2022/07/14 10:23:20;;;;;;;3.65;1.42;;;;;;;30.54;30.72;100832.53;5052100;28;20100;-77
2022/07/14 10:25:53;;;;;;;6.07;1.50;;;;;;;30.73;30.33;100834.78;5051010;28;20124;-77
2022/07/14 10:28:19;;;;;;;5.28;1.55;;;;;;;30.76;30.67;100825.13;5051380;28;20116;-77
2022/07/14 10:31:00;;;;;;;10.90;1.58;;;;;;;30.86;31.27;100827.22;5051792;28;20467;-77
2022/07/14 10:33:47;;;;;;;8.25;1.50;;;;;;;31.06;31.71;100833.13;5054061;28;20477;-78
2022/07/14 10:36:50;;;;;;;9.00;2.75;;;;;;;31.15;32.30;100840.78;5055802;28;20032;-77
2022/07/14 10:39:35;;;;;;;10.88;1.58;;;;;;;31.16;32.00;100842.44;5055068;28;20048;-77
2022/07/14 10:42:11;;;;;;;6.28;1.50;;;;;;;31.03;31.46;100840.06;5055594;28;20520;-78
2022/07/14 10:44:43;;;;;;;9.38;1.33;;;;;;;30.95;30.08;100831.28;5056702;28;20036;-77
2022/07/14 10:47:10;;;;;;;12.07;1.63;;;;;;;30.71;29.83;100822.25;5060173;28;20375;-77
2022/07/14 10:50:05;;;;;;;6.30;1.90;;;;;;;30.70;29.99;100818.63;5055446;28;20270;-76
2022/07/14 10:52:33;;;;;;;3.03;1.30;;;;;;;30.63;28.82;100811.56;5054172;28;20037;-77
2022/07/14 10:55:27;;;;;;;10.00;1.65;;;;;;;30.65;29.69;100812.16;5053358;28;20029;-77
2022/07/14 10:57:59;;;;;;;6.13;2.00;;;;;;;30.76;29.89;100811.25;5053986;28;20041;-78
2022/07/14 11:00:55;;;;;;;6.10;1.37;;;;;;;30.56;29.24;100814.50;5054565;28;20036;-77
2022/07/14 11:03:37;;;;;;;6.65;1.13;;;;;;;30.42;29.28;100806.75;5054570;28;20029;-77
2022/07/14 11:06:03;;;;;;;13.52;1.73;;;;;;;30.45;28.92;100803.50;5054552;28;20024;-77
2022/07/14 11:08:30;;;;;;;13.07;2.08;;;;;;;30.58;28.03;100792.88;5054539;28;20021;-77
2022/07/14 11:10:58;;;;;;;6.13;1.15;;;;;;;30.70;27.75;100803.94;5055611;28;20028;-78
2022/07/14 11:13:24;;;;;;;3.85;1.23;;;;;;;30.81;27.77;100810.47;5060083;28;20035;-78
2022/07/14 11:15:55;;;;;;;5.25;1.58;;;;;;;30.85;28.10;100804.16;5059242;28;20021;-77
2022/07/14 11:18:24;;;;;;;14.90;1.08;;;;;;;30.77;27.94;100797.09;5054114;28;20049;-77
2022/07/14 11:21:01;;;;;;;4.38;1.08;;;;;;;30.91;27.90;100803.16;5054082;28;20029;-76
2022/07/14 11:23:51;;;;;;;13.50;1.20;;;;;;;30.87;27.48;100793.63;5054406;28;20048;-77
2022/07/14 11:26:37;;;;;;;7.07;1.40;;;;;;;30.82;27.47;100804.69;5053785;28;20025;-77
2022/07/14 11:29:07;;;;;;;13.25;1.35;;;;;;;30.63;27.41;100798.53;5055336;28;20479;-77